createdAt,value
2019-02-04T00:00:41.672Z,0
2019-02-04T00:01:51.133Z,0
2019-02-04T00:03:00.851Z,0
2019-02-04T00:04:10.565Z,0
2019-02-04T00:05:20.310Z,0
2019-02-04T00:06:30.104Z,0
2019-02-04T00:07:40.077Z,0
2019-02-04T00:08:49.339Z,0
2019-02-04T00:09:58.780Z,0
2019-02-04T00:11:08.779Z,0
2019-02-04T00:12:18.499Z,0
2019-02-04T00:13:28.455Z,0
2019-02-04T00:14:38.191Z,0
2019-02-04T00:15:47.902Z,0
2019-02-04T00:16:57.607Z,0
2019-02-04T00:18:07.313Z,0
2019-02-04T00:19:17.263Z,0
2019-02-04T00:20:26.723Z,0
2019-02-04T00:21:36.429Z,0
2019-02-04T00:22:45.885Z,0
2019-02-04T00:23:55.580Z,0
2019-02-04T00:25:05.352Z,0
2019-02-04T00:26:15.308Z,0
2019-02-04T00:27:25.028Z,0
2019-02-04T00:28:34.994Z,0
2019-02-04T00:29:44.464Z,0
2019-02-04T00:30:54.173Z,0
2019-02-04T00:32:03.885Z,0
2019-02-04T00:33:13.321Z,0
2019-02-04T00:34:23.021Z,0
2019-02-04T00:35:32.725Z,0
2019-02-04T00:36:42.678Z,0
2019-02-04T00:37:52.399Z,0
2019-02-04T00:39:04.715Z,0
2019-02-04T00:40:14.465Z,0
2019-02-04T00:41:23.931Z,0
2019-02-04T00:42:34.003Z,0
2019-02-04T00:43:44.052Z,0
2019-02-04T00:44:54.533Z,0
2019-02-04T00:46:04.593Z,0
2019-02-04T00:47:15.253Z,0
2019-02-04T00:48:25.651Z,0
2019-02-04T00:49:35.944Z,0
2019-02-04T00:50:46.471Z,0
2019-02-04T00:51:56.965Z,0
2019-02-04T00:53:07.292Z,0
2019-02-04T00:54:17.361Z,0
2019-02-04T00:55:27.330Z,0
2019-02-04T00:56:37.034Z,0
2019-02-04T00:57:46.984Z,0
2019-02-04T00:58:56.677Z,0
2019-02-04T01:00:06.397Z,0
2019-02-04T01:01:16.096Z,0
2019-02-04T01:02:25.539Z,0
2019-02-04T01:03:35.232Z,0
2019-02-04T01:04:44.438Z,0
2019-02-04T01:05:53.880Z,0
2019-02-04T01:07:03.579Z,0
2019-02-04T01:08:13.539Z,0
2019-02-04T01:09:24.452Z,0
2019-02-04T01:10:33.922Z,0
2019-02-04T01:11:43.433Z,0
2019-02-04T01:12:52.879Z,0
2019-02-04T01:14:02.583Z,0
2019-02-04T01:15:12.030Z,0
2019-02-04T01:16:21.746Z,0
2019-02-04T01:17:31.203Z,0
2019-02-04T01:18:40.677Z,0
2019-02-04T01:19:50.147Z,0
2019-02-04T01:20:59.595Z,0
2019-02-04T01:22:09.563Z,0
2019-02-04T01:23:19.275Z,0
2019-02-04T01:24:29.081Z,0
2019-02-04T01:25:39.050Z,0
2019-02-04T01:26:49.020Z,0
2019-02-04T01:27:58.479Z,0
2019-02-04T01:29:08.169Z,0
2019-02-04T01:30:17.378Z,0
2019-02-04T01:31:27.353Z,0
2019-02-04T01:32:37.070Z,0
2019-02-04T01:33:46.787Z,0
2019-02-04T01:34:58.332Z,0
2019-02-04T01:36:08.392Z,0
2019-02-04T01:37:18.087Z,0
2019-02-04T01:38:27.791Z,0
2019-02-04T01:39:37.848Z,0
2019-02-04T01:40:47.319Z,0
2019-02-04T01:41:57.270Z,0
2019-02-04T01:43:06.972Z,0
2019-02-04T01:44:16.708Z,0
2019-02-04T01:45:26.751Z,0
2019-02-04T01:46:36.701Z,0
2019-02-04T01:47:46.666Z,0
2019-02-04T01:48:56.639Z,0
2019-02-04T01:50:06.592Z,0
2019-02-04T01:51:16.837Z,0
2019-02-04T01:52:27.527Z,0
2019-02-04T01:53:37.677Z,0
2019-02-04T01:54:48.299Z,0
2019-02-04T01:55:59.707Z,0
2019-02-04T01:57:09.824Z,0
2019-02-04T01:58:19.859Z,0
2019-02-04T01:59:30.109Z,0
2019-02-04T02:00:40.285Z,0
2019-02-04T02:01:50.005Z,0
2019-02-04T02:02:59.444Z,0
2019-02-04T02:04:09.406Z,0
2019-02-04T02:05:19.367Z,0
2019-02-04T02:06:29.091Z,0
2019-02-04T02:07:39.039Z,0
2019-02-04T02:08:48.249Z,0
2019-02-04T02:09:58.059Z,0
2019-02-04T02:11:08.012Z,0
2019-02-04T02:12:17.470Z,0
2019-02-04T02:13:27.473Z,0
2019-02-04T02:14:37.187Z,0
2019-02-04T02:15:46.899Z,0
2019-02-04T02:16:56.620Z,0
2019-02-04T02:18:06.333Z,0
2019-02-04T02:19:16.037Z,0
2019-02-04T02:20:25.657Z,0
2019-02-04T02:21:34.906Z,0
2019-02-04T02:22:44.877Z,0
2019-02-04T02:23:54.575Z,0
2019-02-04T02:25:04.277Z,0
2019-02-04T02:26:14.240Z,0
2019-02-04T02:27:24.192Z,0
2019-02-04T02:28:34.160Z,0
2019-02-04T02:29:43.621Z,0
2019-02-04T02:30:53.587Z,0
2019-02-04T02:32:03.077Z,0
2019-02-04T02:33:13.077Z,0
2019-02-04T02:34:23.040Z,0
2019-02-04T02:35:32.498Z,0
2019-02-04T02:36:41.956Z,0
2019-02-04T02:37:51.675Z,0
2019-02-04T02:39:01.634Z,0
2019-02-04T02:40:10.593Z,0
2019-02-04T02:41:20.558Z,0
2019-02-04T02:42:30.517Z,0
2019-02-04T02:43:39.728Z,0
2019-02-04T02:44:49.212Z,0
2019-02-04T02:45:58.908Z,0
2019-02-04T02:47:08.606Z,0
2019-02-04T02:48:18.313Z,0
2019-02-04T02:49:28.035Z,0
2019-02-04T02:50:38.070Z,0
2019-02-04T02:51:47.898Z,0
2019-02-04T02:52:57.626Z,0
2019-02-04T02:54:06.837Z,0
2019-02-04T02:55:16.671Z,0
2019-02-04T02:56:26.139Z,0
2019-02-04T02:57:36.099Z,0
2019-02-04T02:58:46.053Z,0
2019-02-04T02:59:55.745Z,0
2019-02-04T03:01:05.460Z,0
2019-02-04T03:02:15.178Z,0
2019-02-04T03:03:25.124Z,0
2019-02-04T03:04:34.840Z,0
2019-02-04T03:05:44.676Z,0
2019-02-04T03:06:55.108Z,0
2019-02-04T03:08:05.964Z,0
2019-02-04T03:09:16.482Z,0
2019-02-04T03:10:27.253Z,0
2019-02-04T03:11:37.371Z,0
2019-02-04T03:12:47.873Z,0
2019-02-04T03:13:57.808Z,0
2019-02-04T03:15:08.007Z,0
2019-02-04T03:16:17.221Z,0
2019-02-04T03:17:27.170Z,0
2019-02-04T03:18:37.234Z,0
2019-02-04T03:19:46.939Z,0
2019-02-04T03:20:56.648Z,0
2019-02-04T03:22:06.101Z,0
2019-02-04T03:23:16.062Z,0
2019-02-04T03:24:26.027Z,0
2019-02-04T03:25:36.119Z,0
2019-02-04T03:26:45.569Z,0
2019-02-04T03:27:55.025Z,0
2019-02-04T03:29:04.975Z,0
2019-02-04T03:30:14.719Z,0
2019-02-04T03:31:24.677Z,0
2019-02-04T03:32:34.693Z,0
2019-02-04T03:33:44.988Z,0
2019-02-04T03:34:54.191Z,0
2019-02-04T03:36:04.147Z,0
2019-02-04T03:37:13.848Z,0
2019-02-04T03:38:23.568Z,0
2019-02-04T03:39:33.258Z,0
2019-02-04T03:40:42.710Z,0
2019-02-04T03:41:52.413Z,0
2019-02-04T03:43:02.187Z,0
2019-02-04T03:44:12.140Z,0
2019-02-04T03:45:21.381Z,0
2019-02-04T03:46:31.353Z,0
2019-02-04T03:47:41.308Z,0
2019-02-04T03:48:51.281Z,0
2019-02-04T03:50:00.994Z,0
2019-02-04T03:51:10.697Z,0
2019-02-04T03:52:20.413Z,0
2019-02-04T03:53:29.604Z,0
2019-02-04T03:54:39.550Z,0
2019-02-04T03:55:49.611Z,0
2019-02-04T03:56:59.578Z,0
2019-02-04T03:58:09.056Z,0
2019-02-04T03:59:18.640Z,0
2019-02-04T04:00:28.096Z,0
2019-02-04T04:01:38.057Z,0
2019-02-04T04:02:47.527Z,0
2019-02-04T04:03:57.019Z,0
2019-02-04T04:05:06.791Z,0
2019-02-04T04:06:16.492Z,0
2019-02-04T04:07:25.938Z,0
2019-02-04T04:08:35.945Z,0
2019-02-04T04:09:45.666Z,0
2019-02-04T04:10:55.378Z,0
2019-02-04T04:12:05.650Z,0
2019-02-04T04:13:16.257Z,0
2019-02-04T04:14:26.884Z,0
2019-02-04T04:15:37.753Z,0
2019-02-04T04:16:48.728Z,0
2019-02-04T04:17:58.838Z,0
2019-02-04T04:19:08.382Z,0
2019-02-04T04:20:18.573Z,0
2019-02-04T04:21:28.724Z,0
2019-02-04T04:22:38.444Z,0
2019-02-04T04:23:48.421Z,0
2019-02-04T04:24:58.372Z,0
2019-02-04T04:26:07.584Z,0
2019-02-04T04:27:17.290Z,0
2019-02-04T04:28:27.022Z,0
2019-02-04T04:29:36.469Z,0
2019-02-04T04:30:45.926Z,0
2019-02-04T04:31:55.879Z,0
2019-02-04T04:33:05.809Z,0
2019-02-04T04:34:15.345Z,0
2019-02-04T04:35:25.312Z,0
2019-02-04T04:36:35.009Z,0
2019-02-04T04:37:44.763Z,0
2019-02-04T04:38:54.224Z,0
2019-02-04T04:40:03.429Z,0
2019-02-04T04:41:13.251Z,0
2019-02-04T04:42:22.202Z,0
2019-02-04T04:43:31.645Z,0
2019-02-04T04:44:41.342Z,0
2019-02-04T04:45:51.058Z,0
2019-02-04T04:47:00.263Z,0
2019-02-04T04:48:09.967Z,0
2019-02-04T04:49:19.936Z,0
2019-02-04T04:50:29.675Z,0
2019-02-04T04:51:38.870Z,0
2019-02-04T04:52:48.820Z,0
2019-02-04T04:53:58.536Z,0
2019-02-04T04:55:08.529Z,0
2019-02-04T04:56:18.230Z,0
2019-02-04T04:57:27.938Z,0
2019-02-04T04:58:37.391Z,0
2019-02-04T04:59:47.348Z,0
2019-02-04T05:00:56.799Z,0
2019-02-04T05:02:06.001Z,0
2019-02-04T05:03:15.700Z,0
2019-02-04T05:04:25.672Z,0
2019-02-04T05:05:35.159Z,0
2019-02-04T05:06:44.628Z,0
2019-02-04T05:07:54.058Z,0
2019-02-04T05:09:03.752Z,0
2019-02-04T05:10:13.723Z,0
2019-02-04T05:11:23.418Z,0
2019-02-04T05:12:33.392Z,0
2019-02-04T05:13:42.864Z,0
2019-02-04T05:14:52.566Z,0
2019-02-04T05:16:02.517Z,0
2019-02-04T05:17:12.237Z,0
2019-02-04T05:18:21.714Z,0
2019-02-04T05:19:31.430Z,0
2019-02-04T05:20:41.389Z,0
2019-02-04T05:21:51.346Z,0
2019-02-04T05:23:00.798Z,0
2019-02-04T05:24:10.485Z,0
2019-02-04T05:25:20.456Z,0
2019-02-04T05:26:30.411Z,0
2019-02-04T05:27:42.921Z,0
2019-02-04T05:28:53.504Z,0
2019-02-04T05:30:04.459Z,0
2019-02-04T05:31:14.296Z,0
2019-02-04T05:32:24.460Z,0
2019-02-04T05:33:34.435Z,0
2019-02-04T05:34:44.911Z,0
2019-02-04T05:35:55.132Z,0
2019-02-04T05:37:05.114Z,0
2019-02-04T05:38:14.826Z,0
2019-02-04T05:39:24.528Z,0
2019-02-04T05:40:34.583Z,0
2019-02-04T05:41:45.544Z,0
2019-02-04T05:42:55.246Z,0
2019-02-04T05:44:04.955Z,0
2019-02-04T05:45:14.290Z,0
2019-02-04T05:46:23.742Z,0
2019-02-04T05:47:33.716Z,0
2019-02-04T05:48:53.837Z,0
2019-02-04T05:50:03.565Z,0
2019-02-04T05:51:13.264Z,0
2019-02-04T05:52:22.820Z,0
2019-02-04T05:53:32.377Z,0
2019-02-04T05:54:42.078Z,0
2019-02-04T05:55:51.595Z,0
2019-02-04T05:57:01.312Z,0
2019-02-04T05:58:10.769Z,0
2019-02-04T05:59:20.467Z,0
2019-02-04T06:00:30.219Z,0
2019-02-04T06:01:39.922Z,0
2019-02-04T06:02:49.623Z,0
2019-02-04T06:03:59.132Z,0
2019-02-04T06:05:08.592Z,0
2019-02-04T06:06:17.814Z,0
2019-02-04T06:07:27.250Z,0
2019-02-04T06:08:37.214Z,0
2019-02-04T06:09:47.182Z,0
2019-02-04T06:10:56.906Z,0
2019-02-04T06:12:06.117Z,0
2019-02-04T06:13:16.069Z,0
2019-02-04T06:14:26.034Z,0
2019-02-04T06:15:35.507Z,0
2019-02-04T06:16:44.962Z,0
2019-02-04T06:17:54.429Z,0
2019-02-04T06:19:10.648Z,0
2019-02-04T06:20:20.617Z,0
2019-02-04T06:21:30.088Z,0
2019-02-04T06:22:40.414Z,0
2019-02-04T06:23:50.723Z,0
2019-02-04T06:25:01.501Z,0
2019-02-04T06:26:12.178Z,0
2019-02-04T06:27:23.139Z,0
2019-02-04T06:28:35.118Z,0
2019-02-04T06:29:45.321Z,0
2019-02-04T06:30:55.278Z,0
2019-02-04T06:32:04.725Z,0
2019-02-04T06:33:14.446Z,0
2019-02-04T06:34:24.256Z,0
2019-02-04T06:35:33.716Z,0
2019-02-04T06:36:43.179Z,0
2019-02-04T06:37:53.944Z,0
2019-02-04T06:39:03.905Z,0
2019-02-04T06:40:13.616Z,0
2019-02-04T06:41:23.566Z,0
2019-02-04T06:42:33.508Z,0
2019-02-04T06:43:43.487Z,0
2019-02-04T06:44:53.440Z,0
2019-02-04T06:46:02.929Z,0
2019-02-04T06:47:12.405Z,0
2019-02-04T06:48:22.107Z,0
2019-02-04T06:49:31.814Z,0
2019-02-04T06:50:41.770Z,0
2019-02-04T06:51:51.486Z,0
2019-02-04T06:53:01.194Z,0
2019-02-04T06:54:10.645Z,0
2019-02-04T06:55:20.346Z,0
2019-02-04T06:56:30.078Z,5
2019-02-04T06:57:40.040Z,5
2019-02-04T06:58:49.763Z,5
2019-02-04T06:59:59.476Z,5
2019-02-04T07:01:08.946Z,5
2019-02-04T07:02:18.909Z,5
2019-02-04T07:03:28.863Z,10
2019-02-04T07:04:38.827Z,10
2019-02-04T07:05:53.105Z,10
2019-02-04T07:07:02.809Z,10
2019-02-04T07:08:12.279Z,10
2019-02-04T07:09:21.980Z,15
2019-02-04T07:10:31.931Z,15
2019-02-04T07:11:41.890Z,15
2019-02-04T07:12:51.935Z,15
2019-02-04T07:14:01.397Z,20
2019-02-04T07:15:11.377Z,20
2019-02-04T07:16:21.094Z,20
2019-02-04T07:17:31.038Z,20
2019-02-04T07:18:40.738Z,25
2019-02-04T07:19:50.449Z,25
2019-02-04T07:21:00.153Z,25
2019-02-04T07:22:09.853Z,30
2019-02-04T07:23:19.566Z,30
2019-02-04T07:24:29.013Z,30
2019-02-04T07:25:39.177Z,35
2019-02-04T07:26:48.952Z,35
2019-02-04T07:27:58.682Z,35
2019-02-04T07:29:08.457Z,40
2019-02-04T07:30:18.209Z,40
2019-02-04T07:31:28.177Z,45
2019-02-04T07:32:37.882Z,45
2019-02-04T07:33:47.097Z,50
2019-02-04T07:34:57.049Z,50
2019-02-04T07:36:10.814Z,55
2019-02-04T07:37:21.070Z,60
2019-02-04T07:38:31.884Z,60
2019-02-04T07:39:42.537Z,65
2019-02-04T07:40:53.190Z,65
2019-02-04T07:42:03.344Z,70
2019-02-04T07:43:13.695Z,70
2019-02-04T07:44:23.435Z,75
2019-02-04T07:45:33.629Z,75
2019-02-04T07:46:43.338Z,75
2019-02-04T07:47:53.299Z,80
2019-02-04T07:49:03.021Z,85
2019-02-04T07:50:12.739Z,85
2019-02-04T07:51:22.451Z,90
2019-02-04T07:52:32.156Z,90
2019-02-04T07:53:41.852Z,100
2019-02-04T07:54:51.816Z,100
2019-02-04T07:56:01.780Z,100
2019-02-04T07:57:11.473Z,105
2019-02-04T07:58:21.423Z,105
2019-02-04T07:59:31.135Z,105
2019-02-04T08:00:40.359Z,110
2019-02-04T08:01:49.836Z,110
2019-02-04T08:02:59.552Z,110
2019-02-04T08:04:09.530Z,115
2019-02-04T08:05:19.505Z,115
2019-02-04T08:06:28.979Z,120
2019-02-04T08:07:38.935Z,120
2019-02-04T08:08:48.631Z,120
2019-02-04T08:09:58.376Z,125
2019-02-04T08:11:08.360Z,125
2019-02-04T08:12:18.312Z,125
2019-02-04T08:13:28.290Z,130
2019-02-04T08:14:37.998Z,130
2019-02-04T08:15:47.969Z,130
2019-02-04T08:16:57.962Z,135
2019-02-04T08:18:07.684Z,135
2019-02-04T08:19:17.397Z,140
2019-02-04T08:20:29.898Z,140
2019-02-04T08:21:39.606Z,140
2019-02-04T08:22:49.325Z,145
2019-02-04T08:23:59.039Z,145
2019-02-04T08:25:08.505Z,150
2019-02-04T08:26:18.456Z,155
2019-02-04T08:27:28.166Z,155
2019-02-04T08:28:38.144Z,160
2019-02-04T08:29:47.851Z,160
2019-02-04T08:30:57.559Z,165
2019-02-04T08:32:07.036Z,165
2019-02-04T08:33:17.231Z,170
2019-02-04T08:34:27.211Z,170
2019-02-04T08:35:37.230Z,175
2019-02-04T08:38:52.414Z,175
2019-02-04T08:40:02.383Z,180
2019-02-04T08:41:11.872Z,180
2019-02-04T08:42:21.605Z,190
2019-02-04T08:43:31.579Z,190
2019-02-04T08:44:41.569Z,190
2019-02-04T08:45:51.072Z,195
2019-02-04T08:47:01.060Z,195
2019-02-04T08:48:11.053Z,200
2019-02-04T08:49:21.102Z,205
2019-02-04T08:50:30.619Z,205
2019-02-04T08:51:40.109Z,205
2019-02-04T08:52:49.599Z,210
2019-02-04T08:53:59.603Z,210
2019-02-04T08:55:09.623Z,210
2019-02-04T08:56:19.109Z,210
2019-02-04T08:57:29.099Z,210
2019-02-04T08:58:38.573Z,210
2019-02-04T08:59:48.056Z,210
2019-02-04T09:00:57.817Z,210
2019-02-04T09:02:07.565Z,210
2019-02-04T09:03:17.327Z,210
2019-02-04T09:04:27.068Z,210
2019-02-04T09:05:36.788Z,210
2019-02-04T09:06:46.832Z,210
2019-02-04T09:07:56.326Z,205
2019-02-04T09:09:06.299Z,210
2019-02-04T09:10:17.531Z,205
2019-02-04T09:11:27.254Z,205
2019-02-04T09:12:36.989Z,205
2019-02-04T09:13:46.984Z,205
2019-02-04T09:14:57.046Z,205
2019-02-04T09:16:06.903Z,210
2019-02-04T09:17:16.678Z,210
2019-02-04T09:18:26.759Z,210
2019-02-04T09:19:37.014Z,210
2019-02-04T09:20:47.552Z,215
2019-02-04T09:21:58.192Z,215
2019-02-04T09:23:11.377Z,215
2019-02-04T09:24:21.738Z,215
2019-02-04T09:25:32.028Z,220
2019-02-04T09:26:41.948Z,220
2019-02-04T09:27:51.798Z,220
2019-02-04T09:29:01.612Z,220
2019-02-04T09:30:11.478Z,225
2019-02-04T09:31:21.489Z,225
2019-02-04T09:32:31.230Z,225
2019-02-04T09:33:40.708Z,225
2019-02-04T09:34:50.434Z,230
2019-02-04T09:36:00.160Z,230
2019-02-04T09:37:09.896Z,230
2019-02-04T09:38:19.875Z,230
2019-02-04T09:39:30.016Z,230
2019-02-04T09:40:40.086Z,230
2019-02-04T09:41:50.092Z,230
2019-02-04T09:42:59.881Z,235
2019-02-04T09:44:09.598Z,235
2019-02-04T09:45:19.588Z,235
2019-02-04T09:46:29.370Z,235
2019-02-04T09:47:39.376Z,235
2019-02-04T09:48:49.475Z,235
2019-02-04T09:49:59.474Z,240
2019-02-04T09:51:09.211Z,240
2019-02-04T09:52:18.693Z,245
2019-02-04T09:53:28.176Z,250
2019-02-04T09:54:38.165Z,245
2019-02-04T09:55:47.649Z,250
2019-02-04T09:56:57.160Z,255
2019-02-04T09:58:06.914Z,250
2019-02-04T09:59:16.381Z,250
2019-02-04T10:00:26.345Z,250
2019-02-04T10:01:35.801Z,250
2019-02-04T10:02:45.516Z,250
2019-02-04T10:03:54.724Z,250
2019-02-04T10:05:04.453Z,250
2019-02-04T10:06:14.423Z,255
2019-02-04T10:07:24.128Z,255
2019-02-04T10:08:33.831Z,255
2019-02-04T10:09:43.306Z,255
2019-02-04T10:10:53.257Z,260
2019-02-04T10:12:02.966Z,260
2019-02-04T10:13:12.929Z,260
2019-02-04T10:14:22.637Z,265
2019-02-04T10:15:32.742Z,265
2019-02-04T10:16:42.597Z,265
2019-02-04T10:17:52.448Z,265
2019-02-04T10:19:02.327Z,270
2019-02-04T10:20:12.497Z,270
2019-02-04T10:21:22.624Z,275
2019-02-04T10:22:32.512Z,275
2019-02-04T10:23:42.542Z,275
2019-02-04T10:24:52.367Z,275
2019-02-04T10:26:02.201Z,280
2019-02-04T10:27:12.334Z,280
2019-02-04T10:28:22.463Z,280
2019-02-04T10:29:32.287Z,280
2019-02-04T10:30:42.349Z,280
2019-02-04T10:31:52.415Z,285
2019-02-04T10:33:02.761Z,285
2019-02-04T10:34:13.420Z,285
2019-02-04T10:35:27.314Z,285
2019-02-04T10:36:37.909Z,280
2019-02-04T10:37:48.666Z,285
2019-02-04T10:38:58.752Z,285
2019-02-04T10:40:09.137Z,285
2019-02-04T10:41:19.233Z,280
2019-02-04T10:42:29.287Z,280
2019-02-04T10:43:39.537Z,280
2019-02-04T10:44:49.685Z,280
2019-02-04T10:45:59.729Z,280
2019-02-04T10:47:09.829Z,280
2019-02-04T10:48:20.003Z,280
2019-02-04T10:49:30.214Z,280
2019-02-04T10:50:53.036Z,280
2019-02-04T10:52:02.835Z,285
2019-02-04T10:53:12.183Z,285
2019-02-04T10:54:22.057Z,290
2019-02-04T10:55:32.209Z,295
2019-02-04T10:56:42.508Z,290
2019-02-04T10:57:52.360Z,295
2019-02-04T10:59:02.438Z,295
2019-02-04T11:00:12.212Z,300
2019-02-04T11:01:21.594Z,300
2019-02-04T11:02:31.597Z,300
2019-02-04T11:03:41.520Z,300
2019-02-04T11:04:51.585Z,305
2019-02-04T11:06:01.716Z,305
2019-02-04T11:07:11.997Z,305
2019-02-04T11:08:21.967Z,305
2019-02-04T11:09:32.197Z,305
2019-02-04T11:10:42.160Z,305
2019-02-04T11:11:51.959Z,305
2019-02-04T11:13:01.727Z,305
2019-02-04T11:14:11.948Z,305
2019-02-04T11:15:22.248Z,310
2019-02-04T11:16:32.098Z,305
2019-02-04T11:17:41.917Z,305
2019-02-04T11:18:52.160Z,300
2019-02-04T11:20:01.971Z,300
2019-02-04T11:21:12.562Z,300
2019-02-04T11:22:23.091Z,300
2019-02-04T11:23:36.502Z,300
2019-02-04T11:24:47.366Z,300
2019-02-04T11:25:57.769Z,295
2019-02-04T11:27:08.063Z,295
2019-02-04T11:28:18.428Z,295
2019-02-04T11:29:28.648Z,290
2019-02-04T11:30:38.556Z,285
2019-02-04T11:31:48.647Z,285
2019-02-04T11:32:59.201Z,285
2019-02-04T11:34:09.090Z,280
2019-02-04T11:35:19.219Z,280
2019-02-04T11:36:29.313Z,275
2019-02-04T11:37:39.443Z,280
2019-02-04T11:38:49.714Z,275
2019-02-04T11:39:59.936Z,280
2019-02-04T11:41:09.961Z,280
2019-02-04T11:42:19.849Z,285
2019-02-04T11:43:30.002Z,290
2019-02-04T11:44:39.790Z,295
2019-02-04T11:45:49.985Z,300
2019-02-04T11:46:59.959Z,300
2019-02-04T11:48:09.819Z,300
2019-02-04T11:49:19.542Z,300
2019-02-04T11:50:29.008Z,300
2019-02-04T11:51:38.735Z,300
2019-02-04T11:52:48.776Z,300
2019-02-04T11:53:58.297Z,295
2019-02-04T11:55:07.784Z,295
2019-02-04T11:56:17.545Z,295
2019-02-04T11:57:27.529Z,295
2019-02-04T11:58:37.490Z,295
2019-02-04T11:59:47.452Z,295
2019-02-04T12:00:57.167Z,295
2019-02-04T12:02:06.925Z,295
2019-02-04T12:03:16.903Z,295
2019-02-04T12:04:26.398Z,295
2019-02-04T12:05:36.108Z,290
2019-02-04T12:06:45.330Z,290
2019-02-04T12:07:55.159Z,290
2019-02-04T12:09:04.619Z,290
2019-02-04T12:10:14.323Z,290
2019-02-04T12:11:24.292Z,290
2019-02-04T12:12:34.282Z,290
2019-02-04T12:13:44.261Z,290
2019-02-04T12:14:53.742Z,295
2019-02-04T12:16:03.212Z,295
2019-02-04T12:17:12.789Z,300
2019-02-04T12:18:22.747Z,300
2019-02-04T12:19:32.535Z,300
2019-02-04T12:20:44.824Z,300
2019-02-04T12:21:54.541Z,300
2019-02-04T12:23:04.246Z,300
2019-02-04T12:24:13.957Z,305
2019-02-04T12:27:47.741Z,305
2019-02-04T12:29:00.083Z,300
2019-02-04T12:30:10.726Z,300
2019-02-04T12:31:20.899Z,300
2019-02-04T12:32:30.845Z,300
2019-02-04T12:33:40.998Z,295
2019-02-04T12:34:50.687Z,295
2019-02-04T12:36:02.089Z,290
2019-02-04T12:37:12.540Z,290
2019-02-04T12:38:22.069Z,290
2019-02-04T12:39:32.040Z,285
2019-02-04T12:40:41.741Z,285
2019-02-04T12:41:53.209Z,280
2019-02-04T12:43:02.680Z,280
2019-02-04T12:44:12.143Z,275
2019-02-04T12:45:21.350Z,275
2019-02-04T12:46:31.051Z,270
2019-02-04T12:47:41.032Z,265
2019-02-04T12:48:50.748Z,260
2019-02-04T12:50:00.455Z,255
2019-02-04T12:51:09.932Z,250
2019-02-04T12:52:19.647Z,245
2019-02-04T12:53:29.358Z,235
2019-02-04T12:54:39.317Z,230
2019-02-04T12:55:49.366Z,225
2019-02-04T12:56:58.586Z,225
2019-02-04T12:58:08.299Z,220
2019-02-04T12:59:18.247Z,220
2019-02-04T13:00:28.229Z,225
2019-02-04T13:01:37.990Z,225
2019-02-04T13:02:47.696Z,225
2019-02-04T13:03:57.439Z,225
2019-02-04T13:05:07.535Z,225
2019-02-04T13:06:17.495Z,225
2019-02-04T13:07:26.945Z,225
2019-02-04T13:08:36.902Z,225
2019-02-04T13:09:46.612Z,225
2019-02-04T13:10:56.329Z,225
2019-02-04T13:12:05.820Z,225
2019-02-04T13:13:15.371Z,225
2019-02-04T13:14:25.354Z,220
2019-02-04T13:15:34.589Z,220
2019-02-04T13:16:44.293Z,220
2019-02-04T13:17:54.255Z,220
2019-02-04T13:19:03.447Z,220
2019-02-04T13:20:12.900Z,220
2019-02-04T13:21:22.602Z,220
2019-02-04T13:22:32.592Z,220
2019-02-04T13:23:42.060Z,220
2019-02-04T13:24:52.030Z,215
2019-02-04T13:26:01.749Z,215
2019-02-04T13:27:11.713Z,210
2019-02-04T13:28:22.301Z,210
2019-02-04T13:29:32.018Z,210
2019-02-04T13:30:41.831Z,205
2019-02-04T13:31:51.313Z,200
2019-02-04T13:33:01.278Z,200
2019-02-04T13:34:11.256Z,195
2019-02-04T13:35:20.958Z,195
2019-02-04T13:36:30.924Z,190
2019-02-04T13:37:41.123Z,190
2019-02-04T13:38:51.430Z,190
2019-02-04T13:40:01.014Z,190
2019-02-04T13:41:20.104Z,190
2019-02-04T13:42:29.980Z,190
2019-02-04T13:43:39.704Z,185
2019-02-04T13:44:49.427Z,185
2019-02-04T13:45:58.634Z,185
2019-02-04T13:47:10.514Z,185
2019-02-04T13:48:20.221Z,180
2019-02-04T13:49:29.927Z,180
2019-02-04T13:50:39.652Z,175
2019-02-04T13:52:01.829Z,175
2019-02-04T13:53:11.418Z,170
2019-02-04T13:54:21.392Z,170
2019-02-04T13:55:31.386Z,165
2019-02-04T13:56:41.348Z,165
2019-02-04T13:57:50.575Z,160
2019-02-04T13:59:00.301Z,160
2019-02-04T14:00:10.009Z,155
2019-02-04T14:01:19.988Z,150
2019-02-04T14:02:29.961Z,150
2019-02-04T14:03:39.667Z,150
2019-02-04T14:04:49.378Z,150
2019-02-04T14:05:59.337Z,150
2019-02-04T14:07:08.819Z,145
2019-02-04T14:08:18.532Z,145
2019-02-04T14:09:28.513Z,145
2019-02-04T14:10:37.748Z,140
2019-02-04T14:11:47.707Z,140
2019-02-04T14:12:57.190Z,135
2019-02-04T14:14:06.657Z,130
2019-02-04T14:15:16.360Z,125
2019-02-04T14:16:26.056Z,125
2019-02-04T14:17:35.756Z,120
2019-02-04T14:18:45.462Z,120
2019-02-04T14:19:54.918Z,115
2019-02-04T14:21:04.376Z,115
2019-02-04T14:22:18.975Z,110
2019-02-04T14:23:32.767Z,110
2019-02-04T14:24:43.597Z,105
2019-02-04T14:25:54.060Z,100
2019-02-04T14:27:04.150Z,95
2019-02-04T14:28:15.373Z,95
2019-02-04T14:29:24.906Z,90
2019-02-04T14:30:34.884Z,85
2019-02-04T14:31:45.017Z,85
2019-02-04T14:32:54.730Z,80
2019-02-04T14:34:08.935Z,80
2019-02-04T14:35:18.905Z,80
2019-02-04T14:36:28.770Z,80
2019-02-04T14:37:38.254Z,80
2019-02-04T14:38:48.226Z,80
2019-02-04T14:39:57.939Z,80
2019-02-04T14:41:07.173Z,80
2019-02-04T14:42:16.881Z,85
2019-02-04T14:43:26.594Z,85
2019-02-04T14:44:36.546Z,85
2019-02-04T14:45:48.177Z,85
2019-02-04T14:46:57.903Z,85
2019-02-04T14:48:15.300Z,85
2019-02-04T14:49:25.256Z,80
2019-02-04T14:50:34.991Z,80
2019-02-04T14:51:44.941Z,75
2019-02-04T14:52:54.897Z,75
2019-02-04T14:54:04.357Z,75
2019-02-04T14:55:14.402Z,75
2019-02-04T14:56:24.072Z,75
2019-02-04T14:57:33.359Z,75
2019-02-04T14:58:43.329Z,75
2019-02-04T14:59:53.031Z,70
2019-02-04T15:01:04.842Z,70
2019-02-04T15:02:14.370Z,65
2019-02-04T15:03:30.286Z,65
2019-02-04T15:04:40.522Z,65
2019-02-04T15:05:51.245Z,65
2019-02-04T15:07:01.850Z,65
2019-02-04T15:08:12.030Z,60
2019-02-04T15:09:24.504Z,60
2019-02-04T15:10:34.465Z,55
2019-02-04T15:11:44.422Z,50
2019-02-04T15:12:53.879Z,45
2019-02-04T15:14:03.622Z,50
2019-02-04T15:15:13.572Z,45
2019-02-04T15:16:26.719Z,45
2019-02-04T15:17:36.457Z,40
2019-02-04T15:18:46.558Z,35
2019-02-04T15:19:56.279Z,35
2019-02-04T15:21:06.240Z,35
2019-02-04T15:22:15.960Z,35
2019-02-04T15:23:25.926Z,30
2019-02-04T15:24:35.385Z,30
2019-02-04T15:25:44.935Z,25
2019-02-04T15:26:54.680Z,25
2019-02-04T15:28:04.152Z,25
2019-02-04T15:29:13.651Z,25
2019-02-04T15:30:23.094Z,25
2019-02-04T15:31:32.823Z,25
2019-02-04T15:32:43.020Z,25
2019-02-04T15:33:52.817Z,20
2019-02-04T15:35:13.726Z,20
2019-02-04T15:36:23.326Z,15
2019-02-04T15:37:33.051Z,15
2019-02-04T15:38:42.391Z,15
2019-02-04T15:39:52.201Z,15
2019-02-04T15:41:02.076Z,10
2019-02-04T15:42:12.114Z,10
2019-02-04T15:43:21.797Z,10
2019-02-04T15:44:31.557Z,10
2019-02-04T15:45:41.908Z,10
2019-02-04T15:46:52.575Z,10
2019-02-04T15:48:03.721Z,10
2019-02-04T15:49:13.803Z,5
2019-02-04T15:50:24.273Z,5
2019-02-04T15:51:34.532Z,5
2019-02-04T15:52:55.037Z,5
2019-02-04T15:54:05.326Z,5
2019-02-04T15:55:15.327Z,5
2019-02-04T15:56:24.848Z,5
2019-02-04T15:57:34.584Z,5
2019-02-04T15:58:44.557Z,5
2019-02-04T15:59:54.513Z,5
2019-02-04T16:01:07.172Z,5
2019-02-04T16:02:16.977Z,5
2019-02-04T16:03:26.445Z,5
2019-02-04T16:04:36.169Z,0
2019-02-04T16:05:45.636Z,0
2019-02-04T16:06:55.615Z,0
2019-02-04T16:08:05.568Z,0
2019-02-04T16:09:15.305Z,0
2019-02-04T16:10:24.764Z,0
2019-02-04T16:11:34.461Z,0
2019-02-04T16:12:47.579Z,0
2019-02-04T16:13:57.813Z,0
2019-02-04T16:15:07.532Z,0
2019-02-04T16:16:17.007Z,0
2019-02-04T16:17:26.706Z,0
2019-02-04T16:18:36.661Z,0
2019-02-04T16:19:46.622Z,0
2019-02-04T16:20:56.112Z,0
2019-02-04T16:22:05.816Z,0
2019-02-04T16:23:15.545Z,0
2019-02-04T16:24:25.505Z,0
2019-02-04T16:25:35.206Z,0
2019-02-04T16:26:44.913Z,0
2019-02-04T16:27:54.869Z,0
2019-02-04T16:29:04.835Z,0
2019-02-04T16:30:14.276Z,0
2019-02-04T16:31:23.989Z,0
2019-02-04T16:32:33.964Z,0
2019-02-04T16:33:43.420Z,0
2019-02-04T16:34:52.893Z,0
2019-02-04T16:36:01.848Z,0
2019-02-04T16:37:11.870Z,0
2019-02-04T16:38:21.322Z,0
2019-02-04T16:39:30.775Z,0
2019-02-04T16:40:40.750Z,0
2019-02-04T16:41:50.220Z,0
2019-02-04T16:42:59.934Z,0
2019-02-04T16:44:09.663Z,0
2019-02-04T16:45:19.614Z,0
2019-02-04T16:46:29.210Z,0